Andover, New Jersey
Current Conditions -  °F | °C
As of 12:53 PM on Wednesday 26 Nov 2014 (Local Time) from KFWN Reporting Station
Heavy Snow Heavy Snow  
Wind Chill: 26°   Ceiling: 700
Heat Index: 33°   Visibility: 0.25mi
Dew Point: 31°   Wind: 8mph
Humidity: 92%   Direction: 30°NNE
Pressure: 30.02"   Gusts: NA
Location:  40.99°N, 74.74°W
Report Text: KFWN 261753Z AUTO 03007KT 1/4SM +SN FG VV007 01/M01 A3002 RMK AO2 SLP170 P0009 60048 T00061006 10044 20006 58025
Loading
Personal Weather Stations






























Interactive Weather Map New forecast layout! Learn more

10-Day Weather Forecast

Advertisements
Track Severe Weather on mobile